sensor_id;sensor_type;location;lat;lon;timestamp;temperature;humidity
35027;DHT22;60696;51.426;6.934;2023-04-24T04:01:26;9.60;99.90
35027;DHT22;60696;51.426;6.934;2023-04-24T04:03:53;9.50;99.90
35027;DHT22;60696;51.426;6.934;2023-04-24T04:06:19;9.60;99.90
35027;DHT22;60696;51.426;6.934;2023-04-24T04:08:44;9.50;99.90
35027;DHT22;60696;51.426;6.934;2023-04-24T04:11:10;9.50;99.90
35027;DHT22;60696;51.426;6.934;2023-04-24T04:13:36;9.50;99.90
35027;DHT22;60696;51.426;6.934;2023-04-24T04:16:01;9.50;99.90
35027;DHT22;60696;51.426;6.934;2023-04-24T04:18:27;9.60;99.90
35027;DHT22;60696;51.426;6.934;2023-04-24T04:20:52;9.60;99.90
35027;DHT22;60696;51.426;6.934;2023-04-24T04:23:18;9.60;99.90
35027;DHT22;60696;51.426;6.934;2023-04-24T04:25:43;9.60;99.90
35027;DHT22;60696;51.426;6.934;2023-04-24T04:28:09;9.50;99.90
35027;DHT22;60696;51.426;6.934;2023-04-24T04:30:35;9.60;99.90
35027;DHT22;60696;51.426;6.934;2023-04-24T04:33:03;9.50;99.90
35027;DHT22;60696;51.426;6.934;2023-04-24T04:35:29;9.50;99.90
35027;DHT22;60696;51.426;6.934;2023-04-24T04:37:54;9.50;99.90
35027;DHT22;60696;51.426;6.934;2023-04-24T04:40:24;9.60;99.90
35027;DHT22;60696;51.426;6.934;2023-04-24T04:42:50;9.50;99.90
35027;DHT22;60696;51.426;6.934;2023-04-24T04:45:18;9.50;99.90
35027;DHT22;60696;51.426;6.934;2023-04-24T04:47:44;9.50;99.90
35027;DHT22;60696;51.426;6.934;2023-04-24T04:50:10;9.50;99.90
35027;DHT22;60696;51.426;6.934;2023-04-24T04:52:36;9.50;99.90
35027;DHT22;60696;51.426;6.934;2023-04-24T04:55:01;9.50;99.90
35027;DHT22;60696;51.426;6.934;2023-04-24T04:57:27;9.50;99.90
35027;DHT22;60696;51.426;6.934;2023-04-24T04:59:53;9.50;99.90
35027;DHT22;60696;51.426;6.934;2023-04-24T05:02:19;9.50;99.90
35027;DHT22;60696;51.426;6.934;2023-04-24T05:04:44;9.50;99.90
35027;DHT22;60696;51.426;6.934;2023-04-24T05:07:11;9.50;99.90
35027;DHT22;60696;51.426;6.934;2023-04-24T05:09:36;9.60;99.90
35027;DHT22;60696;51.426;6.934;2023-04-24T05:12:02;9.50;99.90
35027;DHT22;60696;51.426;6.934;2023-04-24T05:14:28;9.40;99.90
35027;DHT22;60696;51.426;6.934;2023-04-24T05:16:54;9.40;99.90
35027;DHT22;60696;51.426;6.934;2023-04-24T05:19:19;9.40;99.90
35027;DHT22;60696;51.426;6.934;2023-04-24T05:21:45;9.40;99.90
35027;DHT22;60696;51.426;6.934;2023-04-24T05:24:11;9.30;99.90
35027;DHT22;60696;51.426;6.934;2023-04-24T05:26:36;9.30;99.90
35027;DHT22;60696;51.426;6.934;2023-04-24T05:29:02;9.20;99.90
35027;DHT22;60696;51.426;6.934;2023-04-24T05:31:28;9.00;99.90
35027;DHT22;60696;51.426;6.934;2023-04-24T05:33:53;8.90;99.90
35027;DHT22;60696;51.426;6.934;2023-04-24T05:36:19;8.80;99.90
35027;DHT22;60696;51.426;6.934;2023-04-24T05:38:45;8.80;99.90
35027;DHT22;60696;51.426;6.934;2023-04-24T05:41:10;8.80;99.90
35027;DHT22;60696;51.426;6.934;2023-04-24T05:43:36;8.80;99.90
35027;DHT22;60696;51.426;6.934;2023-04-24T05:46:01;8.80;99.90
35027;DHT22;60696;51.426;6.934;2023-04-24T05:48:27;8.90;99.90
35027;DHT22;60696;51.426;6.934;2023-04-24T05:50:52;8.90;99.90
35027;DHT22;60696;51.426;6.934;2023-04-24T05:53:18;8.80;99.90
35027;DHT22;60696;51.426;6.934;2023-04-24T05:55:44;8.90;99.90
35027;DHT22;60696;51.426;6.934;2023-04-24T05:58:11;8.90;99.90
35027;DHT22;60696;51.426;6.934;2023-04-24T06:00:37;8.90;99.90
35027;DHT22;60696;51.426;6.934;2023-04-24T06:03:03;8.90;99.90
35027;DHT22;60696;51.426;6.934;2023-04-24T06:05:29;8.90;99.90
35027;DHT22;60696;51.426;6.934;2023-04-24T06:07:55;8.90;99.90
35027;DHT22;60696;51.426;6.934;2023-04-24T06:10:21;8.90;99.90
35027;DHT22;60696;51.426;6.934;2023-04-24T06:12:46;9.00;99.90
35027;DHT22;60696;51.426;6.934;2023-04-24T06:15:12;9.00;99.90
35027;DHT22;60696;51.426;6.934;2023-04-24T06:17:38;9.00;99.90
35027;DHT22;60696;51.426;6.934;2023-04-24T06:20:04;9.00;99.90
35027;DHT22;60696;51.426;6.934;2023-04-24T06:22:31;8.90;99.90
35027;DHT22;60696;51.426;6.934;2023-04-24T06:24:57;9.00;99.90
35027;DHT22;60696;51.426;6.934;2023-04-24T06:27:22;9.00;99.90
35027;DHT22;60696;51.426;6.934;2023-04-24T06:29:48;9.00;99.90
35027;DHT22;60696;51.426;6.934;2023-04-24T06:32:23;9.00;99.90
35027;DHT22;60696;51.426;6.934;2023-04-24T06:34:49;9.00;99.90
35027;DHT22;60696;51.426;6.934;2023-04-24T06:37:16;9.00;99.90
35027;DHT22;60696;51.426;6.934;2023-04-24T06:39:42;9.00;99.90
35027;DHT22;60696;51.426;6.934;2023-04-24T06:42:07;9.10;99.90
35027;DHT22;60696;51.426;6.934;2023-04-24T06:44:35;9.10;99.90
35027;DHT22;60696;51.426;6.934;2023-04-24T06:47:09;9.10;99.90
35027;DHT22;60696;51.426;6.934;2023-04-24T06:49:36;9.10;99.90
35027;DHT22;60696;51.426;6.934;2023-04-24T06:52:02;9.20;99.90
35027;DHT22;60696;51.426;6.934;2023-04-24T06:54:29;9.20;99.90
35027;DHT22;60696;51.426;6.934;2023-04-24T06:56:54;9.10;99.90
35027;DHT22;60696;51.426;6.934;2023-04-24T06:59:20;9.00;99.90
35027;DHT22;60696;51.426;6.934;2023-04-24T07:01:46;8.90;99.90
35027;DHT22;60696;51.426;6.934;2023-04-24T07:04:11;8.80;99.90
35027;DHT22;60696;51.426;6.934;2023-04-24T07:06:38;8.80;99.90
35027;DHT22;60696;51.426;6.934;2023-04-24T07:09:04;8.90;99.90
35027;DHT22;60696;51.426;6.934;2023-04-24T07:11:30;8.90;99.90
35027;DHT22;60696;51.426;6.934;2023-04-24T07:13:55;8.90;99.90
35027;DHT22;60696;51.426;6.934;2023-04-24T07:16:21;8.90;99.90
35027;DHT22;60696;51.426;6.934;2023-04-24T07:18:47;8.90;99.90
35027;DHT22;60696;51.426;6.934;2023-04-24T07:21:12;8.90;99.90
35027;DHT22;60696;51.426;6.934;2023-04-24T07:23:38;8.90;99.90
35027;DHT22;60696;51.426;6.934;2023-04-24T07:26:04;9.00;99.90
35027;DHT22;60696;51.426;6.934;2023-04-24T07:28:30;8.90;99.90
35027;DHT22;60696;51.426;6.934;2023-04-24T07:30:57;9.00;99.90
35027;DHT22;60696;51.426;6.934;2023-04-24T07:33:22;8.80;99.90
35027;DHT22;60696;51.426;6.934;2023-04-24T07:35:48;8.70;99.90
35027;DHT22;60696;51.426;6.934;2023-04-24T07:38:14;8.70;99.90
35027;DHT22;60696;51.426;6.934;2023-04-24T07:40:40;8.60;99.90
35027;DHT22;60696;51.426;6.934;2023-04-24T07:43:05;8.60;99.90
35027;DHT22;60696;51.426;6.934;2023-04-24T07:45:31;8.60;99.90
35027;DHT22;60696;51.426;6.934;2023-04-24T07:47:58;8.70;99.90
35027;DHT22;60696;51.426;6.934;2023-04-24T07:50:24;8.90;99.90
35027;DHT22;60696;51.426;6.934;2023-04-24T07:52:50;8.90;99.90
35027;DHT22;60696;51.426;6.934;2023-04-24T07:55:15;8.80;99.90
35027;DHT22;60696;51.426;6.934;2023-04-24T07:57:41;8.80;99.90
35027;DHT22;60696;51.426;6.934;2023-04-24T08:00:07;8.80;99.90
35027;DHT22;60696;51.426;6.934;2023-04-24T08:02:33;8.80;99.90
35027;DHT22;60696;51.426;6.934;2023-04-24T08:04:58;8.70;99.90
35027;DHT22;60696;51.426;6.934;2023-04-24T08:07:24;8.70;99.90
35027;DHT22;60696;51.426;6.934;2023-04-24T08:09:50;8.60;99.90
35027;DHT22;60696;51.426;6.934;2023-04-24T08:12:16;8.50;99.90
35027;DHT22;60696;51.426;6.934;2023-04-24T08:14:41;8.40;99.90
35027;DHT22;60696;51.426;6.934;2023-04-24T08:17:07;8.20;99.90
35027;DHT22;60696;51.426;6.934;2023-04-24T08:19:32;8.20;99.90
35027;DHT22;60696;51.426;6.934;2023-04-24T08:21:58;8.20;99.90
35027;DHT22;60696;51.426;6.934;2023-04-24T08:24:24;8.30;99.90
35027;DHT22;60696;51.426;6.934;2023-04-24T08:26:49;8.20;99.90
35027;DHT22;60696;51.426;6.934;2023-04-24T08:29:16;8.20;99.90
35027;DHT22;60696;51.426;6.934;2023-04-24T08:31:42;8.20;99.90
35027;DHT22;60696;51.426;6.934;2023-04-24T08:34:10;8.20;99.90
35027;DHT22;60696;51.426;6.934;2023-04-24T08:36:36;8.30;99.90
35027;DHT22;60696;51.426;6.934;2023-04-24T08:39:02;8.20;99.90
35027;DHT22;60696;51.426;6.934;2023-04-24T08:41:28;8.20;99.90
35027;DHT22;60696;51.426;6.934;2023-04-24T08:43:54;8.30;99.90
35027;DHT22;60696;51.426;6.934;2023-04-24T08:46:20;8.30;99.90
35027;DHT22;60696;51.426;6.934;2023-04-24T08:48:47;8.40;99.90
35027;DHT22;60696;51.426;6.934;2023-04-24T08:51:13;8.50;99.90
35027;DHT22;60696;51.426;6.934;2023-04-24T08:53:39;8.60;99.90
35027;DHT22;60696;51.426;6.934;2023-04-24T08:56:05;8.80;99.90
35027;DHT22;60696;51.426;6.934;2023-04-24T08:58:31;8.80;99.90
35027;DHT22;60696;51.426;6.934;2023-04-24T09:00:58;9.00;99.90
35027;DHT22;60696;51.426;6.934;2023-04-24T09:03:24;9.10;99.90
35027;DHT22;60696;51.426;6.934;2023-04-24T09:05:54;9.20;99.90
35027;DHT22;60696;51.426;6.934;2023-04-24T09:08:22;9.30;99.90
35027;DHT22;60696;51.426;6.934;2023-04-24T09:10:49;9.50;99.90
35027;DHT22;60696;51.426;6.934;2023-04-24T09:13:15;9.30;99.90
35027;DHT22;60696;51.426;6.934;2023-04-24T09:15:42;9.20;99.90
35027;DHT22;60696;51.426;6.934;2023-04-24T09:18:07;9.20;99.90
35027;DHT22;60696;51.426;6.934;2023-04-24T09:20:33;9.10;99.90
35027;DHT22;60696;51.426;6.934;2023-04-24T09:23:01;8.90;99.90
35027;DHT22;60696;51.426;6.934;2023-04-24T09:25:34;8.90;99.90
35027;DHT22;60696;51.426;6.934;2023-04-24T09:28:04;8.90;99.90
35027;DHT22;60696;51.426;6.934;2023-04-24T09:30:31;8.90;99.90
35027;DHT22;60696;51.426;6.934;2023-04-24T09:33:14;8.90;99.90
35027;DHT22;60696;51.426;6.934;2023-04-24T09:35:51;8.90;99.90
35027;DHT22;60696;51.426;6.934;2023-04-24T09:38:17;8.80;99.90
35027;DHT22;60696;51.426;6.934;2023-04-24T09:40:43;8.70;99.90
35027;DHT22;60696;51.426;6.934;2023-04-24T09:43:12;8.70;99.90
35027;DHT22;60696;51.426;6.934;2023-04-24T09:45:39;8.80;99.90
35027;DHT22;60696;51.426;6.934;2023-04-24T09:48:05;8.60;99.90
35027;DHT22;60696;51.426;6.934;2023-04-24T09:50:34;8.80;99.90
35027;DHT22;60696;51.426;6.934;2023-04-24T09:53:04;8.70;99.90
35027;DHT22;60696;51.426;6.934;2023-04-24T09:55:31;8.80;99.90
35027;DHT22;60696;51.426;6.934;2023-04-24T09:58:01;8.70;99.90
35027;DHT22;60696;51.426;6.934;2023-04-24T10:00:32;8.80;99.90
35027;DHT22;60696;51.426;6.934;2023-04-24T10:02:58;8.70;99.90
35027;DHT22;60696;51.426;6.934;2023-04-24T10:05:36;8.80;99.90
35027;DHT22;60696;51.426;6.934;2023-04-24T10:08:10;8.70;99.90
35027;DHT22;60696;51.426;6.934;2023-04-24T10:10:39;8.60;99.90
35027;DHT22;60696;51.426;6.934;2023-04-24T10:13:07;8.70;99.90
35027;DHT22;60696;51.426;6.934;2023-04-24T10:15:33;8.70;99.90
35027;DHT22;60696;51.426;6.934;2023-04-24T10:18:00;8.70;99.90
35027;DHT22;60696;51.426;6.934;2023-04-24T10:20:29;8.70;99.90
35027;DHT22;60696;51.426;6.934;2023-04-24T10:22:59;8.80;99.90
35027;DHT22;60696;51.426;6.934;2023-04-24T10:25:29;9.00;99.90
35027;DHT22;60696;51.426;6.934;2023-04-24T10:27:56;9.10;99.90
35027;DHT22;60696;51.426;6.934;2023-04-24T10:30:27;9.30;99.90
35027;DHT22;60696;51.426;6.934;2023-04-24T10:32:53;9.20;99.90
35027;DHT22;60696;51.426;6.934;2023-04-24T10:35:19;9.20;99.90
35027;DHT22;60696;51.426;6.934;2023-04-24T10:38:09;9.30;99.90
35027;DHT22;60696;51.426;6.934;2023-04-24T10:40:36;9.30;99.90
35027;DHT22;60696;51.426;6.934;2023-04-24T10:43:07;9.20;99.90
35027;DHT22;60696;51.426;6.934;2023-04-24T10:45:37;9.10;99.90
35027;DHT22;60696;51.426;6.934;2023-04-24T10:48:05;9.20;99.90
35027;DHT22;60696;51.426;6.934;2023-04-24T10:50:52;9.10;99.90
35027;DHT22;60696;51.426;6.934;2023-04-24T10:53:20;9.20;99.90
35027;DHT22;60696;51.426;6.934;2023-04-24T10:55:51;9.20;99.90
35027;DHT22;60696;51.426;6.934;2023-04-24T10:58:24;9.30;99.90
35027;DHT22;60696;51.426;6.934;2023-04-24T11:01:00;9.60;99.90
35027;DHT22;60696;51.426;6.934;2023-04-24T11:03:27;9.70;99.90
35027;DHT22;60696;51.426;6.934;2023-04-24T11:05:56;9.80;99.90
35027;DHT22;60696;51.426;6.934;2023-04-24T11:08:30;9.90;99.90
35027;DHT22;60696;51.426;6.934;2023-04-24T11:11:08;9.90;99.90
35027;DHT22;60696;51.426;6.934;2023-04-24T11:16:32;10.00;99.90
35027;DHT22;60696;51.426;6.934;2023-04-24T11:21:43;10.30;99.90
35027;DHT22;60696;51.426;6.934;2023-04-24T11:26:56;10.80;99.90
35027;DHT22;60696;51.426;6.934;2023-04-24T11:29:24;10.70;99.90
35027;DHT22;60696;51.426;6.934;2023-04-24T11:32:18;10.40;99.90
35027;DHT22;60696;51.426;6.934;2023-04-24T11:34:53;10.10;99.90
35027;DHT22;60696;51.426;6.934;2023-04-24T11:37:19;9.70;99.90
35027;DHT22;60696;51.426;6.934;2023-04-24T11:39:44;9.60;99.90
35027;DHT22;60696;51.426;6.934;2023-04-24T11:42:10;9.50;99.90
35027;DHT22;60696;51.426;6.934;2023-04-24T11:44:36;9.50;99.90
35027;DHT22;60696;51.426;6.934;2023-04-24T11:47:05;9.40;99.90
35027;DHT22;60696;51.426;6.934;2023-04-24T11:49:32;9.50;99.90
35027;DHT22;60696;51.426;6.934;2023-04-24T11:51:59;9.60;99.90
35027;DHT22;60696;51.426;6.934;2023-04-24T11:54:25;9.60;99.90
35027;DHT22;60696;51.426;6.934;2023-04-24T11:56:51;9.70;99.90
35027;DHT22;60696;51.426;6.934;2023-04-24T11:59:16;10.00;99.90
35027;DHT22;60696;51.426;6.934;2023-04-24T12:01:46;10.30;99.90
35027;DHT22;60696;51.426;6.934;2023-04-24T12:04:13;10.60;99.90
35027;DHT22;60696;51.426;6.934;2023-04-24T12:06:39;10.90;99.90
35027;DHT22;60696;51.426;6.934;2023-04-24T12:09:05;11.20;99.90
35027;DHT22;60696;51.426;6.934;2023-04-24T12:11:31;11.30;99.90
35027;DHT22;60696;51.426;6.934;2023-04-24T12:13:57;11.40;99.90
35027;DHT22;60696;51.426;6.934;2023-04-24T12:16:26;11.60;99.90
35027;DHT22;60696;51.426;6.934;2023-04-24T12:18:51;11.50;99.90
35027;DHT22;60696;51.426;6.934;2023-04-24T12:21:21;11.10;99.90
35027;DHT22;60696;51.426;6.934;2023-04-24T12:23:47;10.60;99.90
35027;DHT22;60696;51.426;6.934;2023-04-24T12:26:21;10.50;99.90
35027;DHT22;60696;51.426;6.934;2023-04-24T12:28:49;10.20;99.90
35027;DHT22;60696;51.426;6.934;2023-04-24T12:31:20;10.10;99.90
35027;DHT22;60696;51.426;6.934;2023-04-24T12:33:46;10.00;99.90
35027;DHT22;60696;51.426;6.934;2023-04-24T12:36:12;10.00;99.90
35027;DHT22;60696;51.426;6.934;2023-04-24T12:38:38;10.20;99.90
35027;DHT22;60696;51.426;6.934;2023-04-24T12:41:11;10.20;99.90
35027;DHT22;60696;51.426;6.934;2023-04-24T12:43:37;10.50;99.90
35027;DHT22;60696;51.426;6.934;2023-04-24T12:46:03;10.40;99.90
35027;DHT22;60696;51.426;6.934;2023-04-24T12:48:29;10.50;99.90
35027;DHT22;60696;51.426;6.934;2023-04-24T12:50:57;10.50;99.90
35027;DHT22;60696;51.426;6.934;2023-04-24T12:53:26;10.40;99.90
35027;DHT22;60696;51.426;6.934;2023-04-24T12:55:52;10.50;99.90
35027;DHT22;60696;51.426;6.934;2023-04-24T12:58:21;10.70;99.90
35027;DHT22;60696;51.426;6.934;2023-04-24T13:00:47;10.90;99.90
35027;DHT22;60696;51.426;6.934;2023-04-24T13:03:13;11.00;99.90
35027;DHT22;60696;51.426;6.934;2023-04-24T13:05:39;11.30;99.90
35027;DHT22;60696;51.426;6.934;2023-04-24T13:08:05;11.40;99.90
35027;DHT22;60696;51.426;6.934;2023-04-24T13:10:30;11.40;99.90
35027;DHT22;60696;51.426;6.934;2023-04-24T13:12:57;11.10;99.90
35027;DHT22;60696;51.426;6.934;2023-04-24T13:15:22;11.20;99.90
35027;DHT22;60696;51.426;6.934;2023-04-24T13:17:48;11.20;99.90
35027;DHT22;60696;51.426;6.934;2023-04-24T13:20:14;11.00;99.90
35027;DHT22;60696;51.426;6.934;2023-04-24T13:22:39;10.80;99.90
35027;DHT22;60696;51.426;6.934;2023-04-24T13:25:05;10.50;99.90
35027;DHT22;60696;51.426;6.934;2023-04-24T13:27:31;10.50;99.90
35027;DHT22;60696;51.426;6.934;2023-04-24T13:29:57;10.40;99.90
35027;DHT22;60696;51.426;6.934;2023-04-24T13:32:23;10.40;99.90
35027;DHT22;60696;51.426;6.934;2023-04-24T13:34:48;10.60;99.90
35027;DHT22;60696;51.426;6.934;2023-04-24T13:37:14;10.70;99.90
35027;DHT22;60696;51.426;6.934;2023-04-24T13:39:40;10.70;99.90
35027;DHT22;60696;51.426;6.934;2023-04-24T13:42:06;10.60;99.90
35027;DHT22;60696;51.426;6.934;2023-04-24T13:44:32;10.60;99.90
35027;DHT22;60696;51.426;6.934;2023-04-24T13:46:58;10.60;99.90
35027;DHT22;60696;51.426;6.934;2023-04-24T13:49:24;10.70;99.90
35027;DHT22;60696;51.426;6.934;2023-04-24T13:51:51;10.90;99.90
35027;DHT22;60696;51.426;6.934;2023-04-24T13:54:16;11.00;99.90
35027;DHT22;60696;51.426;6.934;2023-04-24T13:56:42;11.00;99.90
35027;DHT22;60696;51.426;6.934;2023-04-24T13:59:08;11.10;99.90
35027;DHT22;60696;51.426;6.934;2023-04-24T14:01:34;11.10;99.90
35027;DHT22;60696;51.426;6.934;2023-04-24T14:03:59;11.20;99.90
35027;DHT22;60696;51.426;6.934;2023-04-24T14:06:25;11.30;99.90
35027;DHT22;60696;51.426;6.934;2023-04-24T14:08:51;11.20;99.90
35027;DHT22;60696;51.426;6.934;2023-04-24T14:11:17;11.30;99.90
35027;DHT22;60696;51.426;6.934;2023-04-24T14:13:44;11.40;99.90
35027;DHT22;60696;51.426;6.934;2023-04-24T14:16:10;11.70;99.90
35027;DHT22;60696;51.426;6.934;2023-04-24T14:18:36;11.80;99.90
35027;DHT22;60696;51.426;6.934;2023-04-24T14:21:03;11.80;99.90
35027;DHT22;60696;51.426;6.934;2023-04-24T14:23:28;11.60;99.90
35027;DHT22;60696;51.426;6.934;2023-04-24T14:25:55;11.60;99.90
35027;DHT22;60696;51.426;6.934;2023-04-24T14:28:21;11.90;99.90
35027;DHT22;60696;51.426;6.934;2023-04-24T14:30:47;11.80;99.90
35027;DHT22;60696;51.426;6.934;2023-04-24T14:33:14;11.70;99.90
35027;DHT22;60696;51.426;6.934;2023-04-24T14:35:40;11.70;99.90
35027;DHT22;60696;51.426;6.934;2023-04-24T14:38:08;11.50;99.90
35027;DHT22;60696;51.426;6.934;2023-04-24T14:40:34;11.50;99.90
35027;DHT22;60696;51.426;6.934;2023-04-24T14:43:00;11.40;99.90
35027;DHT22;60696;51.426;6.934;2023-04-24T14:45:26;11.10;99.90
35027;DHT22;60696;51.426;6.934;2023-04-24T14:47:52;10.90;99.90
35027;DHT22;60696;51.426;6.934;2023-04-24T14:50:18;10.90;99.90
35027;DHT22;60696;51.426;6.934;2023-04-24T14:52:43;10.80;99.90
35027;DHT22;60696;51.426;6.934;2023-04-24T14:55:10;10.50;99.90
35027;DHT22;60696;51.426;6.934;2023-04-24T14:57:35;10.40;99.90
35027;DHT22;60696;51.426;6.934;2023-04-24T15:00:03;10.20;99.90
35027;DHT22;60696;51.426;6.934;2023-04-24T15:02:32;10.10;99.90
35027;DHT22;60696;51.426;6.934;2023-04-24T15:04:58;10.00;99.90
35027;DHT22;60696;51.426;6.934;2023-04-24T15:07:24;9.90;99.90
35027;DHT22;60696;51.426;6.934;2023-04-24T15:09:49;10.00;99.90
35027;DHT22;60696;51.426;6.934;2023-04-24T15:12:15;10.30;99.90
35027;DHT22;60696;51.426;6.934;2023-04-24T15:14:41;10.40;99.90
35027;DHT22;60696;51.426;6.934;2023-04-24T15:17:06;10.60;99.90
35027;DHT22;60696;51.426;6.934;2023-04-24T15:19:32;10.80;99.90
35027;DHT22;60696;51.426;6.934;2023-04-24T15:21:58;10.90;99.90
35027;DHT22;60696;51.426;6.934;2023-04-24T15:24:23;10.90;99.90
35027;DHT22;60696;51.426;6.934;2023-04-24T15:26:49;11.10;99.90
35027;DHT22;60696;51.426;6.934;2023-04-24T15:29:15;11.10;99.90
35027;DHT22;60696;51.426;6.934;2023-04-24T15:31:41;11.10;99.90
35027;DHT22;60696;51.426;6.934;2023-04-24T15:34:06;11.00;99.90
35027;DHT22;60696;51.426;6.934;2023-04-24T15:36:32;11.10;99.90
35027;DHT22;60696;51.426;6.934;2023-04-24T15:38:58;11.20;99.90
35027;DHT22;60696;51.426;6.934;2023-04-24T15:41:23;11.50;99.90
35027;DHT22;60696;51.426;6.934;2023-04-24T15:43:49;11.50;99.90
35027;DHT22;60696;51.426;6.934;2023-04-24T15:46:15;11.50;99.90
35027;DHT22;60696;51.426;6.934;2023-04-24T15:48:42;11.30;99.90
35027;DHT22;60696;51.426;6.934;2023-04-24T15:51:07;11.30;99.90
35027;DHT22;60696;51.426;6.934;2023-04-24T15:53:33;11.30;99.90
35027;DHT22;60696;51.426;6.934;2023-04-24T15:55:59;11.30;99.90
35027;DHT22;60696;51.426;6.934;2023-04-24T15:58:25;11.30;99.90
35027;DHT22;60696;51.426;6.934;2023-04-24T16:00:50;11.10;99.90
35027;DHT22;60696;51.426;6.934;2023-04-24T16:03:18;10.90;99.90
35027;DHT22;60696;51.426;6.934;2023-04-24T16:05:44;10.90;99.90
35027;DHT22;60696;51.426;6.934;2023-04-24T16:08:10;10.70;99.90
35027;DHT22;60696;51.426;6.934;2023-04-24T16:10:36;10.60;99.90
35027;DHT22;60696;51.426;6.934;2023-04-24T16:13:01;10.70;99.90
35027;DHT22;60696;51.426;6.934;2023-04-24T16:15:29;10.80;99.90
35027;DHT22;60696;51.426;6.934;2023-04-24T16:17:55;10.90;99.90
35027;DHT22;60696;51.426;6.934;2023-04-24T16:20:20;10.90;99.90
35027;DHT22;60696;51.426;6.934;2023-04-24T16:22:46;10.80;99.90
35027;DHT22;60696;51.426;6.934;2023-04-24T16:25:12;10.70;99.90
35027;DHT22;60696;51.426;6.934;2023-04-24T16:27:38;10.50;99.90
35027;DHT22;60696;51.426;6.934;2023-04-24T16:30:04;10.40;99.90
35027;DHT22;60696;51.426;6.934;2023-04-24T16:32:30;10.40;99.90
35027;DHT22;60696;51.426;6.934;2023-04-24T16:34:55;10.50;99.90
35027;DHT22;60696;51.426;6.934;2023-04-24T16:37:21;10.40;99.90
35027;DHT22;60696;51.426;6.934;2023-04-24T16:39:47;10.40;99.90
35027;DHT22;60696;51.426;6.934;2023-04-24T16:42:14;10.60;99.90
35027;DHT22;60696;51.426;6.934;2023-04-24T16:44:43;10.70;99.90
35027;DHT22;60696;51.426;6.934;2023-04-24T16:47:09;10.80;99.90
35027;DHT22;60696;51.426;6.934;2023-04-24T16:49:36;10.90;99.90
35027;DHT22;60696;51.426;6.934;2023-04-24T16:52:02;10.80;99.90
35027;DHT22;60696;51.426;6.934;2023-04-24T16:54:28;10.80;99.90
35027;DHT22;60696;51.426;6.934;2023-04-24T16:56:55;10.80;99.90
35027;DHT22;60696;51.426;6.934;2023-04-24T16:59:21;10.90;99.90
35027;DHT22;60696;51.426;6.934;2023-04-24T17:01:47;10.90;99.90
35027;DHT22;60696;51.426;6.934;2023-04-24T17:04:13;10.90;99.90
35027;DHT22;60696;51.426;6.934;2023-04-24T17:06:39;10.70;99.90
35027;DHT22;60696;51.426;6.934;2023-04-24T17:09:05;10.40;99.90
35027;DHT22;60696;51.426;6.934;2023-04-24T17:11:30;10.30;99.90
35027;DHT22;60696;51.426;6.934;2023-04-24T17:13:56;10.20;99.90
35027;DHT22;60696;51.426;6.934;2023-04-24T17:16:23;10.20;99.90
35027;DHT22;60696;51.426;6.934;2023-04-24T17:18:49;10.20;99.90
35027;DHT22;60696;51.426;6.934;2023-04-24T17:21:15;10.20;99.90
35027;DHT22;60696;51.426;6.934;2023-04-24T17:23:41;10.20;99.90
35027;DHT22;60696;51.426;6.934;2023-04-24T17:26:07;10.20;99.90
35027;DHT22;60696;51.426;6.934;2023-04-24T17:28:33;10.10;99.90
35027;DHT22;60696;51.426;6.934;2023-04-24T17:30:59;10.00;99.90
35027;DHT22;60696;51.426;6.934;2023-04-24T17:33:29;9.90;99.90
35027;DHT22;60696;51.426;6.934;2023-04-24T17:35:55;9.90;99.90
35027;DHT22;60696;51.426;6.934;2023-04-24T17:38:22;9.90;99.90
35027;DHT22;60696;51.426;6.934;2023-04-24T17:40:48;9.90;99.90
35027;DHT22;60696;51.426;6.934;2023-04-24T17:43:18;9.90;99.90
35027;DHT22;60696;51.426;6.934;2023-04-24T17:45:47;9.80;99.90
35027;DHT22;60696;51.426;6.934;2023-04-24T17:48:13;9.80;99.90
35027;DHT22;60696;51.426;6.934;2023-04-24T17:50:39;9.80;99.90
35027;DHT22;60696;51.426;6.934;2023-04-24T17:53:05;9.80;99.90
35027;DHT22;60696;51.426;6.934;2023-04-24T17:55:31;9.80;99.90
35027;DHT22;60696;51.426;6.934;2023-04-24T17:57:57;9.80;99.90
35027;DHT22;60696;51.426;6.934;2023-04-24T18:00:22;9.70;99.90
35027;DHT22;60696;51.426;6.934;2023-04-24T18:02:48;9.60;99.90
35027;DHT22;60696;51.426;6.934;2023-04-24T18:05:15;9.50;99.90
35027;DHT22;60696;51.426;6.934;2023-04-24T18:07:41;9.50;99.90
35027;DHT22;60696;51.426;6.934;2023-04-24T18:10:07;9.30;99.90
35027;DHT22;60696;51.426;6.934;2023-04-24T18:12:33;9.20;99.90
35027;DHT22;60696;51.426;6.934;2023-04-24T18:14:58;9.10;99.90
35027;DHT22;60696;51.426;6.934;2023-04-24T18:17:24;9.10;99.90
35027;DHT22;60696;51.426;6.934;2023-04-24T18:19:50;9.00;99.90
35027;DHT22;60696;51.426;6.934;2023-04-24T18:22:16;9.00;99.90
35027;DHT22;60696;51.426;6.934;2023-04-24T18:24:41;9.00;99.90
35027;DHT22;60696;51.426;6.934;2023-04-24T18:27:07;8.80;99.90
35027;DHT22;60696;51.426;6.934;2023-04-24T18:29:32;8.90;99.90
35027;DHT22;60696;51.426;6.934;2023-04-24T18:31:58;9.00;99.90
35027;DHT22;60696;51.426;6.934;2023-04-24T18:34:24;9.00;99.90
35027;DHT22;60696;51.426;6.934;2023-04-24T18:36:50;9.00;99.90
35027;DHT22;60696;51.426;6.934;2023-04-24T18:39:16;9.00;99.90
35027;DHT22;60696;51.426;6.934;2023-04-24T18:41:42;9.00;99.90
35027;DHT22;60696;51.426;6.934;2023-04-24T18:44:07;8.90;99.90
35027;DHT22;60696;51.426;6.934;2023-04-24T18:46:34;8.80;99.90
35027;DHT22;60696;51.426;6.934;2023-04-24T18:49:02;8.70;99.90
35027;DHT22;60696;51.426;6.934;2023-04-24T18:51:28;8.60;99.90
35027;DHT22;60696;51.426;6.934;2023-04-24T18:53:55;8.60;99.90
35027;DHT22;60696;51.426;6.934;2023-04-24T18:56:20;8.60;99.90
35027;DHT22;60696;51.426;6.934;2023-04-24T18:58:46;8.60;99.90
35027;DHT22;60696;51.426;6.934;2023-04-24T19:01:11;8.60;99.90
35027;DHT22;60696;51.426;6.934;2023-04-24T19:03:37;8.50;99.90
35027;DHT22;60696;51.426;6.934;2023-04-24T19:06:03;8.50;99.90
35027;DHT22;60696;51.426;6.934;2023-04-24T19:08:28;8.40;99.90
35027;DHT22;60696;51.426;6.934;2023-04-24T19:10:54;8.30;99.90
35027;DHT22;60696;51.426;6.934;2023-04-24T19:13:20;8.30;99.90
35027;DHT22;60696;51.426;6.934;2023-04-24T19:15:45;8.30;99.90
35027;DHT22;60696;51.426;6.934;2023-04-24T19:18:11;8.20;99.90
35027;DHT22;60696;51.426;6.934;2023-04-24T19:20:36;8.20;99.90
35027;DHT22;60696;51.426;6.934;2023-04-24T19:23:02;8.10;99.90
35027;DHT22;60696;51.426;6.934;2023-04-24T19:25:28;8.00;99.90
35027;DHT22;60696;51.426;6.934;2023-04-24T19:27:53;8.00;99.90
35027;DHT22;60696;51.426;6.934;2023-04-24T19:30:19;8.00;99.90
35027;DHT22;60696;51.426;6.934;2023-04-24T19:32:45;8.00;99.90
35027;DHT22;60696;51.426;6.934;2023-04-24T19:35:10;8.00;99.90
35027;DHT22;60696;51.426;6.934;2023-04-24T19:37:36;8.00;99.90
35027;DHT22;60696;51.426;6.934;2023-04-24T19:40:02;8.00;99.90
35027;DHT22;60696;51.426;6.934;2023-04-24T19:42:28;7.90;99.90
35027;DHT22;60696;51.426;6.934;2023-04-24T19:44:53;7.90;99.90